createdAt,value
2023-06-07T00:04:47.139Z,14.50
2023-06-07T00:09:49.599Z,14.35
2023-06-07T00:14:52.190Z,14.21
2023-06-07T00:19:56.831Z,14.08
2023-06-07T00:24:58.640Z,14.02
2023-06-07T00:30:01.445Z,14.00
2023-06-07T00:35:07.998Z,14.00
2023-06-07T00:40:10.794Z,14.05
2023-06-07T00:45:13.187Z,14.12
2023-06-07T00:50:15.476Z,14.24
2023-06-07T00:55:17.556Z,14.31
2023-06-07T01:00:21.066Z,14.28
2023-06-07T01:05:23.048Z,14.19
2023-06-07T01:10:25.237Z,14.08
2023-06-07T01:15:27.113Z,13.96
2023-06-07T01:20:32.402Z,13.80
2023-06-07T01:25:34.547Z,13.61
2023-06-07T01:30:36.593Z,13.40
2023-06-07T01:35:40.353Z,13.19
2023-06-07T01:40:44.181Z,13.02
2023-06-07T01:45:47.116Z,12.87
2023-06-07T01:50:49.054Z,12.75
2023-06-07T01:56:04.142Z,12.64
2023-06-07T02:01:09.493Z,12.57
2023-06-07T02:06:17.616Z,12.50
2023-06-07T02:11:23.079Z,12.46
2023-06-07T02:16:36.409Z,12.53
2023-06-07T02:21:38.721Z,12.54
2023-06-07T02:26:41.106Z,12.47
2023-06-07T02:31:42.905Z,12.42
2023-06-07T02:36:45.311Z,12.39
2023-06-07T02:41:47.155Z,12.35
2023-06-07T02:46:49.122Z,12.32
2023-06-07T02:51:51.451Z,12.34
2023-06-07T02:56:53.384Z,12.40
2023-06-07T03:01:55.494Z,12.49
2023-06-07T03:06:57.550Z,12.60
2023-06-07T03:11:59.427Z,12.71
2023-06-07T03:17:03.566Z,12.80
2023-06-07T03:22:07.172Z,12.95
2023-06-07T03:27:12.237Z,13.26
2023-06-07T03:32:14.312Z,13.83
2023-06-07T03:37:17.326Z,14.64
2023-06-07T03:42:18.979Z,15.78
2023-06-07T03:47:20.865Z,17.53
2023-06-07T03:52:23.041Z,19.54
2023-06-07T03:57:25.128Z,21.30
2023-06-07T04:02:28.889Z,22.29
2023-06-07T04:07:30.829Z,23.15
2023-06-07T04:12:32.600Z,23.76
2023-06-07T04:17:34.418Z,24.03
2023-06-07T04:22:36.577Z,24.25
2023-06-07T04:27:39.054Z,25.00
2023-06-07T04:32:41.074Z,26.10
2023-06-07T04:37:46.500Z,26.94
2023-06-07T04:42:56.280Z,27.26
2023-06-07T04:47:59.393Z,27.80
2023-06-07T04:53:03.484Z,27.99
2023-06-07T04:58:06.694Z,28.36
2023-06-07T05:03:14.101Z,28.94
2023-06-07T05:08:16.898Z,29.44
2023-06-07T05:13:18.784Z,30.58
2023-06-07T05:18:21.371Z,30.99
2023-06-07T05:23:23.402Z,31.35
2023-06-07T05:28:25.340Z,31.68
2023-06-07T05:33:31.631Z,32.15
2023-06-07T05:38:33.487Z,33.05
2023-06-07T05:43:36.802Z,34.00
2023-06-07T05:48:38.681Z,34.79
2023-06-07T05:53:40.694Z,34.67
2023-06-07T05:58:43.766Z,34.03
2023-06-07T06:03:45.748Z,33.61
2023-06-07T06:08:47.623Z,33.09
2023-06-07T06:13:51.029Z,33.56
2023-06-07T06:18:53.008Z,33.67
2023-06-07T06:23:54.739Z,34.07
2023-06-07T06:28:56.763Z,34.44
2023-06-07T06:33:58.946Z,35.14
2023-06-07T06:39:03.278Z,35.82
2023-06-07T06:44:05.262Z,36.70
2023-06-07T06:49:12.664Z,37.38
2023-06-07T06:54:15.665Z,37.43
2023-06-07T06:59:17.542Z,37.19
2023-06-07T07:04:19.472Z,36.92
2023-06-07T07:09:21.511Z,36.83
2023-06-07T07:14:23.282Z,37.78
2023-06-07T07:19:25.268Z,38.37
2023-06-07T07:24:27.596Z,38.29
2023-06-07T07:29:29.552Z,38.75
2023-06-07T07:34:31.489Z,39.25
2023-06-07T07:39:33.588Z,40.09
2023-06-07T07:44:35.698Z,40.72
2023-06-07T07:49:37.629Z,41.21
2023-06-07T07:54:40.041Z,40.35
2023-06-07T07:59:42.020Z,39.80
2023-06-07T08:04:43.939Z,40.51
2023-06-07T08:09:45.770Z,41.16
2023-06-07T08:14:47.761Z,41.43
2023-06-07T08:19:49.643Z,41.46
2023-06-07T08:24:51.813Z,41.55
2023-06-07T08:29:53.587Z,41.74
2023-06-07T08:34:56.385Z,41.28
2023-06-07T08:39:58.262Z,40.81
2023-06-07T08:45:01.169Z,41.19
2023-06-07T08:50:05.203Z,40.73
2023-06-07T08:55:13.434Z,40.13
2023-06-07T09:00:15.905Z,41.02
2023-06-07T09:05:22.752Z,41.70
2023-06-07T09:10:25.095Z,41.69
2023-06-07T09:15:28.820Z,40.73
2023-06-07T09:20:32.439Z,38.91
2023-06-07T09:25:34.834Z,37.87
2023-06-07T09:30:51.950Z,37.46
2023-06-07T09:36:11.868Z,36.94
2023-06-07T09:41:14.116Z,35.73
2023-06-07T09:46:17.352Z,35.85
2023-06-07T09:51:21.007Z,35.76
2023-06-07T09:56:24.816Z,35.00
2023-06-07T10:01:41.564Z,34.42
2023-06-07T10:06:45.640Z,34.17
2023-06-07T10:11:53.907Z,33.53
2023-06-07T10:17:04.289Z,33.08
2023-06-07T10:22:15.025Z,33.10
2023-06-07T10:27:22.047Z,33.11
2023-06-07T10:32:29.118Z,32.26
2023-06-07T10:37:35.052Z,31.67
2023-06-07T10:42:47.648Z,30.59
2023-06-07T10:47:50.386Z,29.77
2023-06-07T10:52:57.022Z,29.49
2023-06-07T10:58:02.056Z,29.64
2023-06-07T11:03:11.789Z,30.30
2023-06-07T11:08:31.781Z,30.98
2023-06-07T11:13:40.939Z,31.41
2023-06-07T11:19:11.870Z,31.76
2023-06-07T11:24:14.679Z,31.95
2023-06-07T11:29:21.638Z,32.05
2023-06-07T11:34:24.322Z,31.81
2023-06-07T11:39:33.679Z,31.45
2023-06-07T11:44:36.096Z,30.99
2023-06-07T11:49:41.838Z,30.49
2023-06-07T11:54:44.580Z,30.31
2023-06-07T11:59:46.554Z,30.13
2023-06-07T12:04:48.650Z,29.69
2023-06-07T12:09:51.284Z,29.69
2023-06-07T12:15:03.022Z,30.07
2023-06-07T12:20:13.362Z,30.09
2023-06-07T12:25:20.301Z,29.96
2023-06-07T12:30:32.943Z,30.18
2023-06-07T12:35:39.892Z,30.61
2023-06-07T12:40:42.108Z,30.67
2023-06-07T12:45:44.244Z,30.81
2023-06-07T12:50:48.294Z,31.07
2023-06-07T12:55:50.584Z,30.79
2023-06-07T13:00:55.031Z,30.54
2023-06-07T13:05:57.399Z,29.88
2023-06-07T13:10:59.226Z,29.48
2023-06-07T13:16:01.656Z,29.17
2023-06-07T13:21:04.057Z,29.00
2023-06-07T13:26:06.448Z,29.22
2023-06-07T13:31:08.320Z,29.55
2023-06-07T13:36:10.244Z,29.78
2023-06-07T13:41:12.378Z,30.10
2023-06-07T13:46:15.628Z,30.37
2023-06-07T13:51:18.599Z,30.26
2023-06-07T13:56:22.936Z,30.28
2023-06-07T14:01:25.044Z,29.98
2023-06-07T14:06:27.885Z,29.84
2023-06-07T14:11:30.912Z,29.69
2023-06-07T14:16:33.161Z,29.60
2023-06-07T14:21:36.716Z,29.69
2023-06-07T14:26:38.696Z,29.66
2023-06-07T14:31:40.829Z,29.59
2023-06-07T14:36:44.297Z,29.73
2023-06-07T14:41:46.782Z,29.78
2023-06-07T14:46:48.665Z,29.68
2023-06-07T14:51:50.660Z,29.45
2023-06-07T14:56:52.630Z,29.35
2023-06-07T15:01:54.602Z,29.21
2023-06-07T15:06:56.480Z,29.05
2023-06-07T15:11:59.684Z,28.79
2023-06-07T15:17:04.244Z,28.31
2023-06-07T15:22:07.538Z,27.84
2023-06-07T15:27:10.254Z,27.46
2023-06-07T15:32:12.938Z,27.17
2023-06-07T15:37:15.523Z,26.92
2023-06-07T15:42:18.430Z,26.73
2023-06-07T15:47:20.404Z,26.61
2023-06-07T15:52:23.707Z,26.50
2023-06-07T15:57:26.207Z,26.46
2023-06-07T16:02:28.553Z,26.63
2023-06-07T16:07:30.596Z,26.86
2023-06-07T16:12:32.757Z,27.05
2023-06-07T16:17:35.010Z,27.15
2023-06-07T16:22:37.871Z,27.21
2023-06-07T16:27:41.696Z,27.18
2023-06-07T16:32:44.004Z,27.09
2023-06-07T16:37:47.359Z,26.89
2023-06-07T16:42:49.654Z,26.68
2023-06-07T16:47:51.437Z,26.53
2023-06-07T16:52:53.414Z,26.36
2023-06-07T16:57:55.688Z,26.26
2023-06-07T17:02:58.156Z,26.12
2023-06-07T17:08:00.365Z,26.03
2023-06-07T17:13:02.813Z,25.95
2023-06-07T17:18:04.967Z,25.90
2023-06-07T17:23:07.329Z,25.89
2023-06-07T17:28:10.338Z,25.87
2023-06-07T17:33:12.558Z,25.82
2023-06-07T17:38:14.908Z,25.74
2023-06-07T17:43:16.905Z,25.63
2023-06-07T17:48:19.071Z,25.51
2023-06-07T17:53:20.972Z,25.38
2023-06-07T17:58:23.646Z,25.18
2023-06-07T18:03:26.058Z,24.96
2023-06-07T18:08:28.122Z,24.73
2023-06-07T18:13:29.994Z,24.51
2023-06-07T18:18:35.160Z,24.30
2023-06-07T18:23:37.306Z,24.08
2023-06-07T18:28:39.312Z,23.86
2023-06-07T18:33:49.906Z,23.63
2023-06-07T18:38:54.658Z,23.41
2023-06-07T18:44:01.632Z,23.20
2023-06-07T18:49:06.072Z,23.01
2023-06-07T18:54:08.669Z,22.82
2023-06-07T18:59:10.747Z,22.61
2023-06-07T19:04:14.252Z,22.38
2023-06-07T19:09:19.621Z,22.25
2023-06-07T19:14:22.058Z,22.10
2023-06-07T19:19:25.122Z,21.94
2023-06-07T19:24:28.039Z,21.81
2023-06-07T19:29:30.838Z,21.63
2023-06-07T19:34:35.991Z,21.48
2023-06-07T19:39:39.088Z,21.33
2023-06-07T19:44:43.090Z,21.20
2023-06-07T19:49:46.969Z,21.08
2023-06-07T19:54:50.747Z,20.92
2023-06-07T19:59:54.161Z,20.72
2023-06-07T20:04:56.246Z,20.51
2023-06-07T20:10:05.725Z,20.34
2023-06-07T20:15:11.912Z,20.19
2023-06-07T20:20:14.776Z,20.05
2023-06-07T20:25:17.564Z,19.91
2023-06-07T20:30:19.679Z,19.76
2023-06-07T20:35:22.256Z,19.61
2023-06-07T20:40:24.754Z,19.45
2023-06-07T20:45:27.453Z,19.29
2023-06-07T20:50:31.157Z,19.15
2023-06-07T20:55:36.424Z,19.01
2023-06-07T21:00:42.483Z,18.86
2023-06-07T21:05:45.191Z,18.72
2023-06-07T21:10:48.087Z,18.59
2023-06-07T21:15:54.252Z,18.46
2023-06-07T21:20:57.064Z,18.33
2023-06-07T21:25:59.267Z,18.22
2023-06-07T21:31:02.657Z,18.11
2023-06-07T21:36:04.951Z,17.95
2023-06-07T21:41:07.032Z,17.76
2023-06-07T21:46:09.479Z,17.54
2023-06-07T21:51:11.910Z,17.35
2023-06-07T21:56:13.795Z,17.17
2023-06-07T22:01:17.146Z,17.01
2023-06-07T22:06:20.462Z,16.85
2023-06-07T22:11:23.111Z,16.73
2023-06-07T22:16:26.229Z,16.62
2023-06-07T22:21:30.964Z,16.49
2023-06-07T22:26:33.559Z,16.34
2023-06-07T22:31:37.411Z,16.20
2023-06-07T22:36:42.537Z,16.08
2023-06-07T22:41:44.413Z,16.00
2023-06-07T22:46:46.640Z,15.92
2023-06-07T22:51:54.203Z,15.83
2023-06-07T22:56:57.010Z,15.79
2023-06-07T23:01:58.926Z,15.82
2023-06-07T23:07:02.905Z,15.87
2023-06-07T23:12:09.914Z,15.81
2023-06-07T23:17:12.391Z,15.68
2023-06-07T23:22:14.269Z,15.56
2023-06-07T23:27:16.456Z,15.46
2023-06-07T23:32:18.608Z,15.44
2023-06-07T23:37:20.593Z,15.42
2023-06-07T23:42:23.727Z,15.35
2023-06-07T23:47:26.067Z,15.28
2023-06-07T23:52:28.088Z,15.19
2023-06-07T23:57:30.963Z,15.07
